Time;durP1;ratioP1;P1;durP2;ratioP2;P2;SDS_P1;SDS_P2;PMS_P1;PMS_P2;Temp;Humidity;BMP_temperature;BMP_pressure;BME280_temperature;BME280_humidity;BME280_pressure;Samples;Min_cycle;Max_cycle;Signal;HPM_P1;HPM_P2
2023/04/29 00:01:42;;;;;;;1999.90;999.90;;;;;;;;;;6305274;22;20191;-67
2023/04/29 00:04:27;;;;;;;1999.90;999.90;;;;;;;;;;6306678;22;20172;-67
2023/04/29 00:07:14;;;;;;;1999.90;999.90;;;;;;;;;;6306768;22;20253;-69
2023/04/29 00:09:59;;;;;;;1999.90;999.90;;;;;;;;;;6306929;22;20219;-65
2023/04/29 00:12:45;;;;;;;1999.90;999.90;;;;;;;;;;6306810;22;20173;-69
2023/04/29 00:15:30;;;;;;;1999.90;999.90;;;;;;;;;;6306841;22;20525;-66
2023/04/29 00:18:15;;;;;;;1999.90;999.90;;;;;;;;;;6306897;22;20215;-69
2023/04/29 00:21:00;;;;;;;1999.90;999.90;;;;;;;;;;6306279;22;20500;-69
2023/04/29 00:23:45;;;;;;;1999.90;999.90;;;;;;;;;;6306965;22;20169;-68
2023/04/29 00:26:30;;;;;;;1999.90;999.90;;;;;;;;;;6306501;22;20226;-70
2023/04/29 00:29:17;;;;;;;1999.90;999.90;;;;;;;;;;6306809;22;20167;-71
2023/04/29 00:32:02;;;;;;;1999.90;999.90;;;;;;;;;;6306718;22;20244;-70
2023/04/29 00:34:47;;;;;;;1999.90;999.90;;;;;;;;;;6305998;22;20849;-69
2023/04/29 00:37:33;;;;;;;1999.90;999.90;;;;;;;;;;6306525;22;20211;-69
2023/04/29 00:40:19;;;;;;;1999.90;999.90;;;;;;;;;;6306481;22;20616;-69
2023/04/29 00:43:05;;;;;;;1999.90;999.90;;;;;;;;;;6306667;22;20166;-68
2023/04/29 00:45:51;;;;;;;1999.90;999.90;;;;;;;;;;6306514;22;20161;-69
2023/04/29 00:48:36;;;;;;;1999.90;999.90;;;;;;;;;;6306345;22;20201;-70
2023/04/29 00:51:21;;;;;;;1999.90;999.90;;;;;;;;;;6306761;22;20489;-70
2023/04/29 00:54:07;;;;;;;1999.90;999.90;;;;;;;;;;6306432;22;20217;-71
2023/04/29 00:56:52;;;;;;;1999.90;999.90;;;;;;;;;;6306221;22;20219;-70
2023/04/29 00:59:37;;;;;;;1999.90;999.90;;;;;;;;;;6306126;22;20253;-70
2023/04/29 01:02:24;;;;;;;1999.90;999.90;;;;;;;;;;6306370;22;20167;-70
2023/04/29 01:05:09;;;;;;;1999.90;999.90;;;;;;;;;;6306187;22;20168;-70
2023/04/29 01:07:58;;;;;;;1999.90;999.90;;;;;;;;;;6306226;22;20432;-71
2023/04/29 01:10:45;;;;;;;1999.90;999.90;;;;;;;;;;6306318;22;20237;-71
2023/04/29 01:13:30;;;;;;;1999.90;999.90;;;;;;;;;;6305963;22;20211;-71
2023/04/29 01:16:19;;;;;;;1999.90;999.90;;;;;;;;;;6305974;22;20322;-70
2023/04/29 01:19:11;;;;;;;1999.90;999.90;;;;;;;;;;6306380;22;20163;-70
2023/04/29 01:21:56;;;;;;;1999.90;999.90;;;;;;;;;;6305937;22;20378;-68
2023/04/29 01:24:42;;;;;;;1999.90;999.90;;;;;;;;;;6306161;22;20239;-71
2023/04/29 01:27:30;;;;;;;1999.90;999.90;;;;;;;;;;6306188;22;20273;-68
2023/04/29 01:30:21;;;;;;;1999.90;999.90;;;;;;;;;;6306185;22;20171;-69
2023/04/29 01:33:11;;;;;;;1999.90;999.90;;;;;;;;;;6306314;22;20689;-68
2023/04/29 01:36:05;;;;;;;1999.90;999.90;;;;;;;;;;6305940;22;20194;-70
2023/04/29 01:38:53;;;;;;;1999.90;999.90;;;;;;;;;;6306488;22;20191;-71
2023/04/29 01:41:42;;;;;;;1999.90;999.90;;;;;;;;;;6305341;22;20167;-71
2023/04/29 01:44:28;;;;;;;1999.90;999.90;;;;;;;;;;6305635;22;20509;-71
2023/04/29 01:47:14;;;;;;;1999.90;999.90;;;;;;;;;;6305892;22;20195;-70
2023/04/29 01:49:59;;;;;;;1999.90;999.90;;;;;;;;;;6306141;22;20164;-70
2023/04/29 01:52:44;;;;;;;1999.90;999.90;;;;;;;;;;6305710;22;20221;-70
2023/04/29 01:55:29;;;;;;;1999.90;999.90;;;;;;;;;;6305774;22;20167;-69
2023/04/29 01:58:15;;;;;;;1999.90;999.90;;;;;;;;;;6306102;22;20184;-71
2023/04/29 02:01:00;;;;;;;1999.90;999.90;;;;;;;;;;6305301;22;20222;-70
2023/04/29 02:03:46;;;;;;;1999.90;999.90;;;;;;;;;;6306147;22;20169;-71
2023/04/29 02:06:32;;;;;;;1999.90;999.90;;;;;;;;;;6305334;22;20163;-70
2023/04/29 02:09:18;;;;;;;1999.90;999.90;;;;;;;;;;6306324;22;20160;-71
2023/04/29 02:12:03;;;;;;;1999.90;999.90;;;;;;;;;;6304574;22;20384;-71
2023/04/29 02:14:53;;;;;;;1999.90;999.90;;;;;;;;;;6305957;22;20190;-70
2023/04/29 02:17:38;;;;;;;1999.90;999.90;;;;;;;;;;6304877;22;20309;-70
2023/04/29 02:20:23;;;;;;;1999.90;999.90;;;;;;;;;;6305286;22;20167;-71
2023/04/29 02:23:08;;;;;;;1999.90;999.90;;;;;;;;;;6306104;22;20219;-71
2023/04/29 02:25:53;;;;;;;1999.90;999.90;;;;;;;;;;6305271;22;20239;-71
2023/04/29 02:28:37;;;;;;;1999.90;999.90;;;;;;;;;;6305642;22;20241;-71
2023/04/29 02:31:23;;;;;;;1999.90;999.90;;;;;;;;;;6305296;22;20184;-71
2023/04/29 02:34:08;;;;;;;1999.90;999.90;;;;;;;;;;6305406;22;20167;-70
2023/04/29 02:36:53;;;;;;;1999.90;999.90;;;;;;;;;;6304725;22;20541;-70
2023/04/29 02:39:38;;;;;;;1999.90;999.90;;;;;;;;;;6305768;22;20163;-70
2023/04/29 02:42:23;;;;;;;1999.90;999.90;;;;;;;;;;6305301;22;20602;-70
2023/04/29 02:45:09;;;;;;;1999.90;999.90;;;;;;;;;;6305188;22;20165;-70
2023/04/29 02:47:55;;;;;;;1999.90;999.90;;;;;;;;;;6305659;22;20198;-71
2023/04/29 02:50:39;;;;;;;1999.90;999.90;;;;;;;;;;6303479;22;20366;-70
2023/04/29 02:53:24;;;;;;;1999.90;999.90;;;;;;;;;;6305704;22;20365;-70
2023/04/29 02:56:10;;;;;;;1999.90;999.90;;;;;;;;;;6305108;22;20229;-70
2023/04/29 02:58:55;;;;;;;1999.90;999.90;;;;;;;;;;6305199;22;20214;-71
2023/04/29 03:01:40;;;;;;;1999.90;999.90;;;;;;;;;;6305205;22;20503;-71
2023/04/29 03:04:27;;;;;;;1999.90;999.90;;;;;;;;;;6304437;22;20391;-71
2023/04/29 03:07:12;;;;;;;1999.90;999.90;;;;;;;;;;6305039;22;20220;-70
2023/04/29 03:09:57;;;;;;;1999.90;999.90;;;;;;;;;;6305301;22;20614;-70
2023/04/29 03:12:42;;;;;;;1999.90;999.90;;;;;;;;;;6305752;22;20166;-70
2023/04/29 03:15:27;;;;;;;1999.90;999.90;;;;;;;;;;6304977;22;20207;-70
2023/04/29 03:18:12;;;;;;;1999.90;999.90;;;;;;;;;;6305495;22;20696;-70
2023/04/29 03:20:58;;;;;;;1999.90;999.90;;;;;;;;;;6304762;22;20220;-70
2023/04/29 03:23:43;;;;;;;1999.90;999.90;;;;;;;;;;6305446;22;20167;-70
2023/04/29 03:26:28;;;;;;;1999.90;999.90;;;;;;;;;;6304777;22;20205;-70
2023/04/29 03:29:13;;;;;;;1999.90;999.90;;;;;;;;;;6305765;22;20163;-70
2023/04/29 03:31:58;;;;;;;1999.90;999.90;;;;;;;;;;6305239;22;20163;-71
2023/04/29 03:34:43;;;;;;;1999.90;999.90;;;;;;;;;;6304955;22;20164;-71
2023/04/29 03:37:30;;;;;;;1999.90;999.90;;;;;;;;;;6305917;22;20397;-71
2023/04/29 03:40:15;;;;;;;1999.90;999.90;;;;;;;;;;6306964;22;20403;-71
2023/04/29 03:43:00;;;;;;;1999.90;999.90;;;;;;;;;;6307092;22;20622;-71
2023/04/29 03:45:45;;;;;;;1999.90;999.90;;;;;;;;;;6306825;22;20221;-70
2023/04/29 03:48:30;;;;;;;1999.90;999.90;;;;;;;;;;6306879;22;20211;-70
2023/04/29 03:51:15;;;;;;;1999.90;999.90;;;;;;;;;;6306953;22;20829;-70
2023/04/29 03:54:01;;;;;;;1999.90;999.90;;;;;;;;;;6307022;22;20163;-71
2023/04/29 03:56:46;;;;;;;1999.90;999.90;;;;;;;;;;6307080;22;20710;-70
2023/04/29 03:59:31;;;;;;;1999.90;999.90;;;;;;;;;;6306852;22;20707;-71
2023/04/29 04:02:16;;;;;;;1999.90;999.90;;;;;;;;;;6307465;22;20242;-70
2023/04/29 04:05:01;;;;;;;1999.90;999.90;;;;;;;;;;6306676;22;20211;-71
2023/04/29 04:07:45;;;;;;;1999.90;999.90;;;;;;;;;;6307047;22;20284;-70
2023/04/29 04:10:32;;;;;;;1999.90;999.90;;;;;;;;;;6306697;22;20169;-70
2023/04/29 04:13:16;;;;;;;1999.90;999.90;;;;;;;;;;6307188;22;20669;-70
2023/04/29 04:16:01;;;;;;;1999.90;999.90;;;;;;;;;;6306931;22;20243;-70
2023/04/29 04:18:46;;;;;;;1999.90;999.90;;;;;;;;;;6306783;22;20545;-70
2023/04/29 04:21:31;;;;;;;1999.90;999.90;;;;;;;;;;6306277;22;20730;-69
2023/04/29 04:24:16;;;;;;;1999.90;999.90;;;;;;;;;;6306543;22;20247;-69
2023/04/29 04:27:03;;;;;;;1999.90;999.90;;;;;;;;;;6306295;22;20509;-70
2023/04/29 04:29:48;;;;;;;1999.90;999.90;;;;;;;;;;6306587;22;20168;-71
2023/04/29 04:32:33;;;;;;;1999.90;999.90;;;;;;;;;;6306713;22;20202;-70
2023/04/29 04:35:18;;;;;;;1999.90;999.90;;;;;;;;;;6306600;22;20183;-71
2023/04/29 04:38:03;;;;;;;1999.90;999.90;;;;;;;;;;6306651;22;20205;-71
2023/04/29 04:40:48;;;;;;;1999.90;999.90;;;;;;;;;;6306043;22;20882;-71
2023/04/29 04:43:34;;;;;;;1999.90;999.90;;;;;;;;;;6307209;22;20211;-67
2023/04/29 04:46:19;;;;;;;1999.90;999.90;;;;;;;;;;6306349;22;20291;-71
2023/04/29 04:49:04;;;;;;;1999.90;999.90;;;;;;;;;;6305613;22;20159;-71
2023/04/29 04:51:50;;;;;;;1999.90;999.90;;;;;;;;;;6306757;22;20172;-70
2023/04/29 04:54:35;;;;;;;1999.90;999.90;;;;;;;;;;6306388;22;20244;-70
2023/04/29 04:57:20;;;;;;;1999.90;999.90;;;;;;;;;;6306319;22;20199;-70
2023/04/29 05:00:07;;;;;;;1999.90;999.90;;;;;;;;;;6306418;22;20211;-70
2023/04/29 05:02:52;;;;;;;1999.90;999.90;;;;;;;;;;6306452;22;20168;-70
2023/04/29 05:05:37;;;;;;;1999.90;999.90;;;;;;;;;;6306743;22;20547;-70
2023/04/29 05:08:22;;;;;;;1999.90;999.90;;;;;;;;;;6306397;22;20207;-70
2023/04/29 05:11:15;;;;;;;1999.90;999.90;;;;;;;;;;6306285;22;20167;-70
2023/04/29 05:14:01;;;;;;;1999.90;999.90;;;;;;;;;;6306345;22;20635;-69
2023/04/29 05:16:47;;;;;;;1999.90;999.90;;;;;;;;;;6306751;22;20373;-69
2023/04/29 05:19:32;;;;;;;1999.90;999.90;;;;;;;;;;6306636;22;20513;-70
2023/04/29 05:22:17;;;;;;;1999.90;999.90;;;;;;;;;;6306502;22;20213;-66
2023/04/29 05:25:03;;;;;;;1999.90;999.90;;;;;;;;;;6306367;22;20583;-71
2023/04/29 05:27:47;;;;;;;1999.90;999.90;;;;;;;;;;6306272;22;20215;-71
2023/04/29 05:30:32;;;;;;;1999.90;999.90;;;;;;;;;;6306376;22;20555;-71
2023/04/29 05:33:19;;;;;;;1999.90;999.90;;;;;;;;;;6306431;22;20752;-71
2023/04/29 05:36:05;;;;;;;1999.90;999.90;;;;;;;;;;6306399;22;20167;-70
2023/04/29 05:38:50;;;;;;;1999.90;999.90;;;;;;;;;;6306181;22;20188;-71
2023/04/29 05:41:35;;;;;;;1999.90;999.90;;;;;;;;;;6306197;22;20167;-70
2023/04/29 05:44:20;;;;;;;1999.90;999.90;;;;;;;;;;6306085;22;20167;-71
2023/04/29 05:47:05;;;;;;;1999.90;999.90;;;;;;;;;;6306137;22;20200;-71
2023/04/29 05:49:52;;;;;;;1999.90;999.90;;;;;;;;;;6306064;22;20206;-71
2023/04/29 05:52:37;;;;;;;1999.90;999.90;;;;;;;;;;6306172;22;20220;-71
2023/04/29 05:55:22;;;;;;;1999.90;999.90;;;;;;;;;;6306058;22;20742;-71
2023/04/29 05:58:07;;;;;;;1999.90;999.90;;;;;;;;;;6305975;22;20198;-70
2023/04/29 06:00:52;;;;;;;1999.90;999.90;;;;;;;;;;6306018;22;20512;-71
2023/04/29 06:03:36;;;;;;;1999.90;999.90;;;;;;;;;;6306034;22;20166;-70
2023/04/29 06:06:23;;;;;;;1999.90;999.90;;;;;;;;;;6305750;22;20169;-71
2023/04/29 06:09:08;;;;;;;1999.90;999.90;;;;;;;;;;6306399;22;20244;-70
2023/04/29 06:11:53;;;;;;;1999.90;999.90;;;;;;;;;;6306089;22;20165;-71
2023/04/29 06:14:38;;;;;;;1999.90;999.90;;;;;;;;;;6305746;22;20511;-71
2023/04/29 06:17:23;;;;;;;1999.90;999.90;;;;;;;;;;6305229;22;20204;-69
2023/04/29 06:20:09;;;;;;;1999.90;999.90;;;;;;;;;;6305631;22;20218;-70
2023/04/29 06:22:55;;;;;;;1999.90;999.90;;;;;;;;;;6305945;22;20206;-70
2023/04/29 06:25:40;;;;;;;1999.90;999.90;;;;;;;;;;6304008;22;20370;-68
2023/04/29 06:28:25;;;;;;;1999.90;999.90;;;;;;;;;;6305440;22;20276;-70
2023/04/29 06:31:10;;;;;;;1999.90;999.90;;;;;;;;;;6305393;22;20161;-71
2023/04/29 06:33:55;;;;;;;1999.90;999.90;;;;;;;;;;6305813;22;20220;-68
2023/04/29 06:36:40;;;;;;;1999.90;999.90;;;;;;;;;;6306160;22;20202;-71
2023/04/29 06:39:26;;;;;;;1999.90;999.90;;;;;;;;;;6305344;22;20559;-71
2023/04/29 06:42:11;;;;;;;1999.90;999.90;;;;;;;;;;6305032;22;20167;-71
2023/04/29 06:44:56;;;;;;;1999.90;999.90;;;;;;;;;;6304675;22;20557;-69
2023/04/29 06:47:41;;;;;;;1999.90;999.90;;;;;;;;;;6305532;22;20201;-71
2023/04/29 06:50:27;;;;;;;1999.90;999.90;;;;;;;;;;6305618;22;20166;-70
2023/04/29 06:53:12;;;;;;;1999.90;999.90;;;;;;;;;;6303777;22;20284;-71
2023/04/29 06:55:58;;;;;;;1999.90;999.90;;;;;;;;;;6304648;22;20206;-70
2023/04/29 06:58:43;;;;;;;1999.90;999.90;;;;;;;;;;6301398;22;20229;-71
2023/04/29 07:01:28;;;;;;;1999.90;999.90;;;;;;;;;;6302854;22;20181;-71
2023/04/29 07:04:13;;;;;;;1999.90;999.90;;;;;;;;;;6302431;22;20557;-71
2023/04/29 07:06:58;;;;;;;1999.90;999.90;;;;;;;;;;6302792;22;20210;-72
2023/04/29 07:09:43;;;;;;;1999.90;999.90;;;;;;;;;;6303250;22;20167;-71
2023/04/29 07:12:29;;;;;;;1999.90;999.90;;;;;;;;;;6303526;22;20185;-71
2023/04/29 07:15:14;;;;;;;1999.90;999.90;;;;;;;;;;6304710;22;20501;-71
2023/04/29 07:18:00;;;;;;;1999.90;999.90;;;;;;;;;;6303497;22;20386;-71
2023/04/29 07:20:46;;;;;;;1999.90;999.90;;;;;;;;;;6304888;22;20241;-70
2023/04/29 07:23:31;;;;;;;1999.90;999.90;;;;;;;;;;6304987;22;20229;-70
2023/04/29 07:26:17;;;;;;;1999.90;999.90;;;;;;;;;;6305397;22;20171;-71
2023/04/29 07:29:03;;;;;;;1999.90;999.90;;;;;;;;;;6303923;22;20163;-71
2023/04/29 07:31:48;;;;;;;1999.90;999.90;;;;;;;;;;6304585;22;20229;-71
2023/04/29 07:34:33;;;;;;;1999.90;999.90;;;;;;;;;;6304834;22;20175;-71
2023/04/29 07:37:18;;;;;;;1999.90;999.90;;;;;;;;;;6305064;22;20698;-71
2023/04/29 07:40:03;;;;;;;1999.90;999.90;;;;;;;;;;6305193;22;20286;-71
2023/04/29 07:42:48;;;;;;;1999.90;999.90;;;;;;;;;;6305477;22;20251;-71
2023/04/29 07:45:35;;;;;;;1999.90;999.90;;;;;;;;;;6304877;22;20213;-70
2023/04/29 07:48:21;;;;;;;1999.90;999.90;;;;;;;;;;6304893;22;20313;-71
2023/04/29 07:51:06;;;;;;;1999.90;999.90;;;;;;;;;;6305370;22;20175;-71
2023/04/29 07:53:51;;;;;;;1999.90;999.90;;;;;;;;;;6305277;22;20571;-71
2023/04/29 07:56:36;;;;;;;1999.90;999.90;;;;;;;;;;6304288;22;20213;-71
2023/04/29 07:59:20;;;;;;;1999.90;999.90;;;;;;;;;;6304832;22;20534;-71
2023/04/29 08:02:07;;;;;;;1999.90;999.90;;;;;;;;;;6304782;22;20174;-70
2023/04/29 08:04:53;;;;;;;1999.90;999.90;;;;;;;;;;6304427;22;20596;-70
2023/04/29 08:07:38;;;;;;;1999.90;999.90;;;;;;;;;;6302245;22;20455;-70
2023/04/29 08:10:23;;;;;;;1999.90;999.90;;;;;;;;;;6304991;22;20241;-70
2023/04/29 08:13:08;;;;;;;1999.90;999.90;;;;;;;;;;6304695;22;20171;-70
2023/04/29 08:15:53;;;;;;;1999.90;999.90;;;;;;;;;;6304222;22;20182;-70
2023/04/29 08:18:39;;;;;;;1999.90;999.90;;;;;;;;;;6302854;22;20579;-68
2023/04/29 08:21:24;;;;;;;1999.90;999.90;;;;;;;;;;6303269;22;20555;-68
2023/04/29 08:24:09;;;;;;;1999.90;999.90;;;;;;;;;;6304055;22;20721;-71
2023/04/29 08:26:54;;;;;;;1999.90;999.90;;;;;;;;;;6304294;22;20539;-71
2023/04/29 08:29:39;;;;;;;1999.90;999.90;;;;;;;;;;6303019;22;20293;-70
2023/04/29 08:32:24;;;;;;;1999.90;999.90;;;;;;;;;;6304691;22;20163;-71
2023/04/29 08:35:10;;;;;;;1999.90;999.90;;;;;;;;;;6302882;22;20169;-70
2023/04/29 08:37:55;;;;;;;1999.90;999.90;;;;;;;;;;6304016;22;20201;-70
2023/04/29 08:40:41;;;;;;;1999.90;999.90;;;;;;;;;;6302823;22;20235;-70
2023/04/29 08:43:27;;;;;;;1999.90;999.90;;;;;;;;;;6302135;22;20171;-70
2023/04/29 08:46:12;;;;;;;1999.90;999.90;;;;;;;;;;6302827;22;20289;-71
2023/04/29 08:48:57;;;;;;;1999.90;999.90;;;;;;;;;;6303812;22;20291;-71
2023/04/29 08:51:44;;;;;;;1999.90;999.90;;;;;;;;;;6304109;22;20164;-71
2023/04/29 08:54:29;;;;;;;1999.90;999.90;;;;;;;;;;6304491;22;20167;-71
2023/04/29 08:57:14;;;;;;;1999.90;999.90;;;;;;;;;;6302757;22;20419;-72
2023/04/29 09:00:00;;;;;;;1999.90;999.90;;;;;;;;;;6304237;22;20415;-71
2023/04/29 09:02:45;;;;;;;1999.90;999.90;;;;;;;;;;6303550;22;20167;-71
2023/04/29 09:05:31;;;;;;;1999.90;999.90;;;;;;;;;;6304361;22;20214;-71
2023/04/29 09:08:17;;;;;;;1999.90;999.90;;;;;;;;;;6305205;22;20726;-73
2023/04/29 09:11:03;;;;;;;1999.90;999.90;;;;;;;;;;6306482;22;20715;-73
2023/04/29 09:13:48;;;;;;;1999.90;999.90;;;;;;;;;;6305113;22;20167;-73
2023/04/29 09:16:34;;;;;;;1999.90;999.90;;;;;;;;;;6306086;22;20179;-73
2023/04/29 09:19:29;;;;;;;1999.90;999.90;;;;;;;;;;6306241;22;20529;-72
2023/04/29 09:22:15;;;;;;;1999.90;999.90;;;;;;;;;;6306322;22;20163;-71
2023/04/29 09:25:12;;;;;;;1999.90;999.90;;;;;;;;;;6303162;22;20625;-71
2023/04/29 09:27:58;;;;;;;1999.90;999.90;;;;;;;;;;6304452;22;20245;-72
2023/04/29 09:30:45;;;;;;;1999.90;999.90;;;;;;;;;;6302311;22;20432;-73
2023/04/29 09:33:30;;;;;;;1999.90;999.90;;;;;;;;;;6303755;22;20180;-73
2023/04/29 09:36:34;;;;;;;1999.90;999.90;;;;;;;;;;6304089;22;20167;-73
2023/04/29 09:39:20;;;;;;;1999.90;999.90;;;;;;;;;;6305210;22;20747;-73
2023/04/29 09:42:08;;;;;;;1999.90;999.90;;;;;;;;;;6305936;22;20246;-73
2023/04/29 09:44:53;;;;;;;1999.90;999.90;;;;;;;;;;6304264;22;20374;-73
2023/04/29 09:47:38;;;;;;;1999.90;999.90;;;;;;;;;;6306279;22;20451;-73
2023/04/29 09:50:23;;;;;;;1999.90;999.90;;;;;;;;;;6305588;22;20160;-73
2023/04/29 09:53:08;;;;;;;1999.90;999.90;;;;;;;;;;6306243;22;20250;-72
2023/04/29 09:56:01;;;;;;;1999.90;999.90;;;;;;;;;;6306111;22;20168;-73
2023/04/29 09:58:47;;;;;;;1999.90;999.90;;;;;;;;;;6306131;22;20518;-72
2023/04/29 10:01:32;;;;;;;1999.90;999.90;;;;;;;;;;6305014;22;20256;-73
2023/04/29 10:04:18;;;;;;;1999.90;999.90;;;;;;;;;;6305814;22;20164;-70
2023/04/29 10:07:03;;;;;;;1999.90;999.90;;;;;;;;;;6305910;22;20287;-73
2023/04/29 10:09:47;;;;;;;1999.90;999.90;;;;;;;;;;6306122;22;20159;-73
2023/04/29 10:12:33;;;;;;;1999.90;999.90;;;;;;;;;;6304559;22;20236;-72
2023/04/29 10:15:22;;;;;;;1999.90;999.90;;;;;;;;;;6304417;22;20164;-73
2023/04/29 10:18:12;;;;;;;1999.90;999.90;;;;;;;;;;6304267;22;20419;-72
2023/04/29 10:21:01;;;;;;;1999.90;999.90;;;;;;;;;;6305713;22;20218;-70
2023/04/29 10:23:46;;;;;;;1999.90;999.90;;;;;;;;;;6303521;22;20167;-72
2023/04/29 10:26:31;;;;;;;1999.90;999.90;;;;;;;;;;6305159;22;20167;-72
2023/04/29 10:29:17;;;;;;;1999.90;999.90;;;;;;;;;;6304672;22;20244;-72
2023/04/29 10:32:04;;;;;;;1999.90;999.90;;;;;;;;;;6305755;22;20167;-73
2023/04/29 10:34:50;;;;;;;1999.90;999.90;;;;;;;;;;6304407;22;20405;-72
2023/04/29 10:37:35;;;;;;;1999.90;999.90;;;;;;;;;;6303299;22;20601;-73
2023/04/29 10:40:22;;;;;;;1999.90;999.90;;;;;;;;;;6304789;22;20210;-72
2023/04/29 10:43:08;;;;;;;1999.90;999.90;;;;;;;;;;6305829;22;20163;-72
2023/04/29 10:46:16;;;;;;;1999.90;999.90;;;;;;;;;;6303725;22;20171;-72
2023/04/29 10:49:03;;;;;;;1999.90;999.90;;;;;;;;;;6305701;22;20181;-72
2023/04/29 10:51:48;;;;;;;1999.90;999.90;;;;;;;;;;6304973;22;20168;-72
2023/04/29 10:54:33;;;;;;;1999.90;999.90;;;;;;;;;;6304889;22;20613;-72
2023/04/29 10:57:20;;;;;;;1999.90;999.90;;;;;;;;;;6304999;22;20222;-72
2023/04/29 11:00:06;;;;;;;1999.90;999.90;;;;;;;;;;6304303;22;20647;-72
2023/04/29 11:02:51;;;;;;;1999.90;999.90;;;;;;;;;;6305126;22;20673;-72
2023/04/29 11:05:37;;;;;;;1999.90;999.90;;;;;;;;;;6303395;22;20248;-73
2023/04/29 11:08:25;;;;;;;1999.90;999.90;;;;;;;;;;6303038;22;20381;-72
2023/04/29 11:11:10;;;;;;;1999.90;999.90;;;;;;;;;;6303385;22;20222;-73
2023/04/29 11:13:55;;;;;;;1999.90;999.90;;;;;;;;;;6302949;22;20171;-72
2023/04/29 11:16:46;;;;;;;1999.90;999.90;;;;;;;;;;6302777;22;20274;-72
2023/04/29 11:19:32;;;;;;;1999.90;999.90;;;;;;;;;;6303581;22;20718;-72
2023/04/29 11:22:31;;;;;;;1999.90;999.90;;;;;;;;;;6303167;22;20167;-72
2023/04/29 11:25:16;;;;;;;1999.90;999.90;;;;;;;;;;6301370;22;20389;-73
2023/04/29 11:28:01;;;;;;;1999.90;999.90;;;;;;;;;;6303001;22;20203;-71
2023/04/29 11:30:46;;;;;;;1999.90;999.90;;;;;;;;;;6303451;22;20178;-72
2023/04/29 11:33:32;;;;;;;1999.90;999.90;;;;;;;;;;6301733;22;20242;-73
2023/04/29 11:36:17;;;;;;;1999.90;999.90;;;;;;;;;;6303025;22;20215;-71
2023/04/29 11:39:03;;;;;;;1999.90;999.90;;;;;;;;;;6301612;22;20521;-73
2023/04/29 11:41:49;;;;;;;1999.90;999.90;;;;;;;;;;6302841;22;20163;-72
2023/04/29 11:44:34;;;;;;;1999.90;999.90;;;;;;;;;;6302589;22;20166;-71
2023/04/29 11:47:20;;;;;;;1999.90;999.90;;;;;;;;;;6303439;22;20199;-70
2023/04/29 11:50:07;;;;;;;1999.90;999.90;;;;;;;;;;6302951;22;20159;-70
2023/04/29 11:52:52;;;;;;;1999.90;999.90;;;;;;;;;;6302341;22;20172;-71
2023/04/29 11:55:39;;;;;;;1999.90;999.90;;;;;;;;;;6303081;22;20168;-71
2023/04/29 11:58:24;;;;;;;1999.90;999.90;;;;;;;;;;6304310;22;20246;-70
2023/04/29 12:01:10;;;;;;;1999.90;999.90;;;;;;;;;;6303718;22;20627;-71
2023/04/29 12:03:57;;;;;;;1999.90;999.90;;;;;;;;;;6305035;22;20164;-71
2023/04/29 12:06:43;;;;;;;1999.90;999.90;;;;;;;;;;6304596;22;20265;-71
2023/04/29 12:09:28;;;;;;;1999.90;999.90;;;;;;;;;;6304735;22;20624;-69
2023/04/29 12:12:14;;;;;;;1999.90;999.90;;;;;;;;;;6304966;22;20233;-70
2023/04/29 12:15:01;;;;;;;1999.90;999.90;;;;;;;;;;6304755;22;20282;-71
2023/04/29 12:17:46;;;;;;;1999.90;999.90;;;;;;;;;;6304910;22;20750;-71
2023/04/29 12:20:32;;;;;;;1999.90;999.90;;;;;;;;;;6304845;22;20277;-72
2023/04/29 12:23:18;;;;;;;1999.90;999.90;;;;;;;;;;6304856;22;20210;-71
2023/04/29 12:26:03;;;;;;;1999.90;999.90;;;;;;;;;;6304606;22;20178;-71
2023/04/29 12:28:53;;;;;;;1999.90;999.90;;;;;;;;;;6304941;22;20171;-71
2023/04/29 12:31:38;;;;;;;1999.90;999.90;;;;;;;;;;6304987;22;20243;-71
2023/04/29 12:34:28;;;;;;;1999.90;999.90;;;;;;;;;;6304496;22;20594;-72
2023/04/29 12:37:13;;;;;;;1999.90;999.90;;;;;;;;;;6304692;22;20199;-71
2023/04/29 12:39:58;;;;;;;1999.90;999.90;;;;;;;;;;6304696;22;20191;-71
2023/04/29 12:42:44;;;;;;;1999.90;999.90;;;;;;;;;;6304717;22;20631;-72
2023/04/29 12:45:31;;;;;;;1999.90;999.90;;;;;;;;;;6304469;22;20494;-72
2023/04/29 12:48:16;;;;;;;1999.90;999.90;;;;;;;;;;6304010;22;20524;-71
2023/04/29 12:51:02;;;;;;;1999.90;999.90;;;;;;;;;;6304449;22;20179;-71
2023/04/29 12:53:47;;;;;;;1999.90;999.90;;;;;;;;;;6304641;22;20214;-72
2023/04/29 12:56:32;;;;;;;1999.90;999.90;;;;;;;;;;6304366;22;20210;-71
2023/04/29 12:59:17;;;;;;;1999.90;999.90;;;;;;;;;;6304248;22;20542;-72
2023/04/29 13:02:03;;;;;;;1999.90;999.90;;;;;;;;;;6304522;22;20170;-72
2023/04/29 13:04:48;;;;;;;1999.90;999.90;;;;;;;;;;6302787;22;20379;-71
2023/04/29 13:07:33;;;;;;;1999.90;999.90;;;;;;;;;;6304313;22;20212;-71
2023/04/29 13:10:19;;;;;;;1999.90;999.90;;;;;;;;;;6303672;22;20160;-71
2023/04/29 13:13:03;;;;;;;1999.90;999.90;;;;;;;;;;6304293;22;20241;-70
2023/04/29 13:15:48;;;;;;;1999.90;999.90;;;;;;;;;;6304505;22;20164;-72
2023/04/29 13:18:34;;;;;;;1999.90;999.90;;;;;;;;;;6304252;22;20202;-71
2023/04/29 13:21:19;;;;;;;1999.90;999.90;;;;;;;;;;6304251;22;20160;-71
2023/04/29 13:24:05;;;;;;;1999.90;999.90;;;;;;;;;;6304398;22;20167;-73
2023/04/29 13:26:50;;;;;;;1999.90;999.90;;;;;;;;;;6304189;22;20226;-72
2023/04/29 13:29:35;;;;;;;1999.90;999.90;;;;;;;;;;6303623;22;20167;-73
2023/04/29 13:32:22;;;;;;;1999.90;999.90;;;;;;;;;;6303643;22;20164;-70
2023/04/29 13:35:08;;;;;;;1999.90;999.90;;;;;;;;;;6304070;22;20171;-71
2023/04/29 13:37:54;;;;;;;1999.90;999.90;;;;;;;;;;6302166;22;20367;-72
2023/04/29 13:40:39;;;;;;;1999.90;999.90;;;;;;;;;;6303795;22;20213;-72
2023/04/29 13:43:24;;;;;;;1999.90;999.90;;;;;;;;;;6303321;22;20702;-72
2023/04/29 13:46:09;;;;;;;1999.90;999.90;;;;;;;;;;6303038;22;20294;-71
2023/04/29 13:48:54;;;;;;;1999.90;999.90;;;;;;;;;;6303865;22;20172;-71
2023/04/29 13:51:40;;;;;;;1999.90;999.90;;;;;;;;;;6302435;22;20370;-73
2023/04/29 13:54:25;;;;;;;1999.90;999.90;;;;;;;;;;6303799;22;20170;-72
2023/04/29 13:57:10;;;;;;;1999.90;999.90;;;;;;;;;;6304260;22;20207;-72
2023/04/29 13:59:55;;;;;;;1999.90;999.90;;;;;;;;;;6304054;22;20773;-71
2023/04/29 14:02:40;;;;;;;1999.90;999.90;;;;;;;;;;6304391;22;20167;-70
2023/04/29 14:05:25;;;;;;;1999.90;999.90;;;;;;;;;;6304136;22;20494;-73
2023/04/29 14:08:12;;;;;;;1999.90;999.90;;;;;;;;;;6303353;22;20606;-72
2023/04/29 14:10:56;;;;;;;1999.90;999.90;;;;;;;;;;6304026;22;20608;-72
2023/04/29 14:13:41;;;;;;;1999.90;999.90;;;;;;;;;;6304053;22;20690;-72
2023/04/29 14:16:27;;;;;;;1999.90;999.90;;;;;;;;;;6304019;22;20167;-73
2023/04/29 14:19:12;;;;;;;1999.90;999.90;;;;;;;;;;6304058;22;20172;-72
2023/04/29 14:21:57;;;;;;;1999.90;999.90;;;;;;;;;;6303268;22;20691;-70
2023/04/29 14:24:43;;;;;;;1999.90;999.90;;;;;;;;;;6303721;22;20306;-72
2023/04/29 14:27:28;;;;;;;1999.90;999.90;;;;;;;;;;6303974;22;20281;-72
2023/04/29 14:30:13;;;;;;;1999.90;999.90;;;;;;;;;;6303945;22;20166;-70
2023/04/29 14:32:58;;;;;;;1999.90;999.90;;;;;;;;;;6303853;22;20590;-70
2023/04/29 14:35:43;;;;;;;1999.90;999.90;;;;;;;;;;6303736;22;20697;-71
2023/04/29 14:38:28;;;;;;;1999.90;999.90;;;;;;;;;;6303772;22;20205;-71
2023/04/29 14:41:14;;;;;;;1999.90;999.90;;;;;;;;;;6303773;22;20528;-71
2023/04/29 14:43:59;;;;;;;1999.90;999.90;;;;;;;;;;6303850;22;20169;-71
2023/04/29 14:46:44;;;;;;;1999.90;999.90;;;;;;;;;;6302906;22;20202;-71
2023/04/29 14:49:29;;;;;;;1999.90;999.90;;;;;;;;;;6303658;22;20226;-70
2023/04/29 14:52:14;;;;;;;1999.90;999.90;;;;;;;;;;6302058;22;20234;-70
2023/04/29 14:54:59;;;;;;;1999.90;999.90;;;;;;;;;;6302992;22;20169;-71
2023/04/29 14:57:45;;;;;;;1999.90;999.90;;;;;;;;;;6303017;22;20199;-71
2023/04/29 15:00:30;;;;;;;1999.90;999.90;;;;;;;;;;6303054;22;20195;-70
2023/04/29 15:03:15;;;;;;;1999.90;999.90;;;;;;;;;;6303078;22;20256;-70
2023/04/29 15:06:02;;;;;;;1999.90;999.90;;;;;;;;;;6303485;22;20173;-72
2023/04/29 15:08:47;;;;;;;1999.90;999.90;;;;;;;;;;6302998;22;20400;-71
2023/04/29 15:11:32;;;;;;;1999.90;999.90;;;;;;;;;;6302408;22;20210;-71
2023/04/29 15:14:18;;;;;;;1999.90;999.90;;;;;;;;;;6302785;22;20186;-71
2023/04/29 15:17:03;;;;;;;1999.90;999.90;;;;;;;;;;6302837;22;20215;-71
2023/04/29 15:19:48;;;;;;;1999.90;999.90;;;;;;;;;;6302407;22;20191;-71
2023/04/29 15:22:33;;;;;;;1999.90;999.90;;;;;;;;;;6303499;22;20163;-71
2023/04/29 15:25:18;;;;;;;1999.90;999.90;;;;;;;;;;6300226;22;20356;-71